sensor_id;sensor_type;location;lat;lon;timestamp;P1;durP1;ratioP1;P2;durP2;ratioP2
72085;SDS011;64750;52.134;5.424;2024-02-26T00:01:47;3.50;;;3.20;;
72085;SDS011;64750;52.134;5.424;2024-02-26T00:04:13;3.60;;;2.80;;
72085;SDS011;64750;52.134;5.424;2024-02-26T00:06:40;4.57;;;2.78;;
72085;SDS011;64750;52.134;5.424;2024-02-26T00:09:07;2.80;;;2.60;;
72085;SDS011;64750;52.134;5.424;2024-02-26T00:11:38;3.50;;;2.60;;
72085;SDS011;64750;52.134;5.424;2024-02-26T00:14:05;2.97;;;2.78;;
72085;SDS011;64750;52.134;5.424;2024-02-26T00:16:31;3.27;;;2.77;;
72085;SDS011;64750;52.134;5.424;2024-02-26T00:18:58;2.90;;;2.70;;
72085;SDS011;64750;52.134;5.424;2024-02-26T00:21:25;3.65;;;3.30;;
72085;SDS011;64750;52.134;5.424;2024-02-26T00:23:52;3.30;;;3.10;;
72085;SDS011;64750;52.134;5.424;2024-02-26T00:26:19;3.10;;;2.80;;
72085;SDS011;64750;52.134;5.424;2024-02-26T00:28:46;3.10;;;2.90;;
72085;SDS011;64750;52.134;5.424;2024-02-26T00:31:12;3.15;;;2.88;;
72085;SDS011;64750;52.134;5.424;2024-02-26T00:33:39;3.33;;;3.03;;
72085;SDS011;64750;52.134;5.424;2024-02-26T00:36:06;3.15;;;2.95;;
72085;SDS011;64750;52.134;5.424;2024-02-26T00:38:32;3.92;;;3.63;;
72085;SDS011;64750;52.134;5.424;2024-02-26T00:40:59;3.00;;;2.80;;
72085;SDS011;64750;52.134;5.424;2024-02-26T00:43:25;3.38;;;3.08;;
72085;SDS011;64750;52.134;5.424;2024-02-26T00:45:52;3.45;;;3.15;;
72085;SDS011;64750;52.134;5.424;2024-02-26T00:48:18;3.53;;;3.30;;
72085;SDS011;64750;52.134;5.424;2024-02-26T00:50:45;3.67;;;3.38;;
72085;SDS011;64750;52.134;5.424;2024-02-26T00:53:12;4.30;;;3.50;;
72085;SDS011;64750;52.134;5.424;2024-02-26T00:55:38;3.20;;;3.00;;
72085;SDS011;64750;52.134;5.424;2024-02-26T00:58:05;3.55;;;3.25;;
72085;SDS011;64750;52.134;5.424;2024-02-26T01:00:32;3.58;;;3.28;;
72085;SDS011;64750;52.134;5.424;2024-02-26T01:02:58;5.00;;;3.42;;
72085;SDS011;64750;52.134;5.424;2024-02-26T01:05:26;3.40;;;3.00;;
72085;SDS011;64750;52.134;5.424;2024-02-26T01:07:52;3.15;;;2.88;;
72085;SDS011;64750;52.134;5.424;2024-02-26T01:10:19;3.80;;;3.50;;
72085;SDS011;64750;52.134;5.424;2024-02-26T01:12:45;3.67;;;3.35;;
72085;SDS011;64750;52.134;5.424;2024-02-26T01:15:12;3.70;;;3.40;;
72085;SDS011;64750;52.134;5.424;2024-02-26T01:17:39;4.30;;;4.00;;
72085;SDS011;64750;52.134;5.424;2024-02-26T01:20:06;4.05;;;3.53;;
72085;SDS011;64750;52.134;5.424;2024-02-26T01:22:34;3.95;;;3.55;;
72085;SDS011;64750;52.134;5.424;2024-02-26T01:25:01;3.38;;;3.08;;
72085;SDS011;64750;52.134;5.424;2024-02-26T01:27:27;3.97;;;3.58;;
72085;SDS011;64750;52.134;5.424;2024-02-26T01:29:54;3.67;;;3.37;;
72085;SDS011;64750;52.134;5.424;2024-02-26T01:32:21;3.92;;;3.47;;
72085;SDS011;64750;52.134;5.424;2024-02-26T01:34:47;3.63;;;3.33;;
72085;SDS011;64750;52.134;5.424;2024-02-26T01:37:14;5.93;;;4.05;;
72085;SDS011;64750;52.134;5.424;2024-02-26T01:39:40;3.70;;;3.40;;
72085;SDS011;64750;52.134;5.424;2024-02-26T01:42:08;4.03;;;3.40;;
72085;SDS011;64750;52.134;5.424;2024-02-26T01:44:36;3.67;;;3.47;;
72085;SDS011;64750;52.134;5.424;2024-02-26T01:47:04;4.30;;;4.00;;
72085;SDS011;64750;52.134;5.424;2024-02-26T01:49:34;4.05;;;3.75;;
72085;SDS011;64750;52.134;5.424;2024-02-26T01:52:02;3.92;;;3.63;;
72085;SDS011;64750;52.134;5.424;2024-02-26T01:54:30;3.80;;;3.60;;
72085;SDS011;64750;52.134;5.424;2024-02-26T01:56:57;3.33;;;3.13;;
72085;SDS011;64750;52.134;5.424;2024-02-26T01:59:24;5.10;;;3.85;;
72085;SDS011;64750;52.134;5.424;2024-02-26T02:01:52;5.40;;;3.95;;
72085;SDS011;64750;52.134;5.424;2024-02-26T02:04:23;4.65;;;4.35;;
72085;SDS011;64750;52.134;5.424;2024-02-26T02:06:50;3.77;;;3.47;;
72085;SDS011;64750;52.134;5.424;2024-02-26T02:09:18;4.00;;;3.70;;
72085;SDS011;64750;52.134;5.424;2024-02-26T02:11:45;4.63;;;3.72;;
72085;SDS011;64750;52.134;5.424;2024-02-26T02:14:12;4.00;;;3.60;;
72085;SDS011;64750;52.134;5.424;2024-02-26T02:16:39;4.18;;;3.88;;
72085;SDS011;64750;52.134;5.424;2024-02-26T02:19:05;4.13;;;3.60;;
72085;SDS011;64750;52.134;5.424;2024-02-26T02:21:32;3.28;;;2.97;;
72085;SDS011;64750;52.134;5.424;2024-02-26T02:23:58;4.13;;;3.83;;
72085;SDS011;64750;52.134;5.424;2024-02-26T02:26:25;4.30;;;3.90;;
72085;SDS011;64750;52.134;5.424;2024-02-26T02:28:51;5.30;;;3.60;;
72085;SDS011;64750;52.134;5.424;2024-02-26T02:31:19;3.77;;;3.47;;
72085;SDS011;64750;52.134;5.424;2024-02-26T02:33:45;3.30;;;3.10;;
72085;SDS011;64750;52.134;5.424;2024-02-26T02:36:12;3.63;;;3.42;;
72085;SDS011;64750;52.134;5.424;2024-02-26T02:38:48;4.95;;;3.17;;
72085;SDS011;64750;52.134;5.424;2024-02-26T02:41:18;4.00;;;3.70;;
72085;SDS011;64750;52.134;5.424;2024-02-26T02:43:45;3.97;;;3.60;;
72085;SDS011;64750;52.134;5.424;2024-02-26T02:46:15;3.70;;;3.40;;
72085;SDS011;64750;52.134;5.424;2024-02-26T02:48:41;3.35;;;3.15;;
72085;SDS011;64750;52.134;5.424;2024-02-26T02:51:09;4.05;;;3.63;;
72085;SDS011;64750;52.134;5.424;2024-02-26T02:53:36;4.32;;;3.92;;
72085;SDS011;64750;52.134;5.424;2024-02-26T02:56:03;3.63;;;3.33;;
72085;SDS011;64750;52.134;5.424;2024-02-26T02:58:29;4.00;;;3.60;;
72085;SDS011;64750;52.134;5.424;2024-02-26T03:00:56;3.67;;;3.40;;
72085;SDS011;64750;52.134;5.424;2024-02-26T03:03:22;3.92;;;3.63;;
72085;SDS011;64750;52.134;5.424;2024-02-26T03:05:50;4.05;;;3.75;;
72085;SDS011;64750;52.134;5.424;2024-02-26T03:08:17;4.50;;;4.10;;
72085;SDS011;64750;52.134;5.424;2024-02-26T03:10:45;4.00;;;3.70;;
72085;SDS011;64750;52.134;5.424;2024-02-26T03:13:12;3.92;;;3.63;;
72085;SDS011;64750;52.134;5.424;2024-02-26T03:15:41;4.10;;;3.80;;
72085;SDS011;64750;52.134;5.424;2024-02-26T03:18:07;4.80;;;4.40;;
72085;SDS011;64750;52.134;5.424;2024-02-26T03:20:34;7.43;;;4.40;;
72085;SDS011;64750;52.134;5.424;2024-02-26T03:23:00;5.40;;;4.55;;
72085;SDS011;64750;52.134;5.424;2024-02-26T03:25:27;4.82;;;4.43;;
72085;SDS011;64750;52.134;5.424;2024-02-26T03:27:53;5.95;;;4.43;;
72085;SDS011;64750;52.134;5.424;2024-02-26T03:30:20;4.78;;;4.45;;
72085;SDS011;64750;52.134;5.424;2024-02-26T03:32:46;5.00;;;4.00;;
72085;SDS011;64750;52.134;5.424;2024-02-26T03:35:14;5.50;;;5.00;;
72085;SDS011;64750;52.134;5.424;2024-02-26T03:37:40;5.55;;;5.13;;
72085;SDS011;64750;52.134;5.424;2024-02-26T03:40:07;5.05;;;4.65;;
72085;SDS011;64750;52.134;5.424;2024-02-26T03:42:34;5.53;;;4.97;;
72085;SDS011;64750;52.134;5.424;2024-02-26T03:45:00;5.73;;;5.23;;
72085;SDS011;64750;52.134;5.424;2024-02-26T03:47:27;5.50;;;5.00;;
72085;SDS011;64750;52.134;5.424;2024-02-26T03:49:53;5.40;;;4.93;;
72085;SDS011;64750;52.134;5.424;2024-02-26T03:52:20;5.53;;;5.03;;
72085;SDS011;64750;52.134;5.424;2024-02-26T03:54:46;5.57;;;5.18;;
72085;SDS011;64750;52.134;5.424;2024-02-26T03:57:13;8.53;;;5.37;;
72085;SDS011;64750;52.134;5.424;2024-02-26T03:59:39;6.10;;;5.13;;
72085;SDS011;64750;52.134;5.424;2024-02-26T04:02:06;5.47;;;5.07;;
72085;SDS011;64750;52.134;5.424;2024-02-26T04:04:35;5.65;;;5.15;;
72085;SDS011;64750;52.134;5.424;2024-02-26T04:07:02;6.55;;;4.63;;
72085;SDS011;64750;52.134;5.424;2024-02-26T04:09:30;5.70;;;5.30;;
72085;SDS011;64750;52.134;5.424;2024-02-26T04:11:57;5.05;;;4.32;;
72085;SDS011;64750;52.134;5.424;2024-02-26T04:14:24;4.82;;;4.43;;
72085;SDS011;64750;52.134;5.424;2024-02-26T04:16:51;4.95;;;4.55;;
72085;SDS011;64750;52.134;5.424;2024-02-26T04:19:20;5.57;;;5.18;;
72085;SDS011;64750;52.134;5.424;2024-02-26T04:21:47;4.90;;;4.43;;
72085;SDS011;64750;52.134;5.424;2024-02-26T04:24:13;4.93;;;4.53;;
72085;SDS011;64750;52.134;5.424;2024-02-26T04:26:40;7.10;;;4.72;;
72085;SDS011;64750;52.134;5.424;2024-02-26T04:29:07;5.13;;;4.63;;
72085;SDS011;64750;52.134;5.424;2024-02-26T04:31:34;8.10;;;4.43;;
72085;SDS011;64750;52.134;5.424;2024-02-26T04:34:00;5.30;;;4.80;;
72085;SDS011;64750;52.134;5.424;2024-02-26T04:36:27;4.97;;;4.25;;
72085;SDS011;64750;52.134;5.424;2024-02-26T04:38:54;4.10;;;3.80;;
72085;SDS011;64750;52.134;5.424;2024-02-26T04:41:22;4.85;;;4.45;;
72085;SDS011;64750;52.134;5.424;2024-02-26T04:43:48;5.30;;;4.78;;
72085;SDS011;64750;52.134;5.424;2024-02-26T04:46:15;5.13;;;4.37;;
72085;SDS011;64750;52.134;5.424;2024-02-26T04:48:41;5.63;;;4.40;;
72085;SDS011;64750;52.134;5.424;2024-02-26T04:51:08;4.88;;;4.07;;
72085;SDS011;64750;52.134;5.424;2024-02-26T04:53:35;4.75;;;4.32;;
72085;SDS011;64750;52.134;5.424;2024-02-26T04:56:01;5.72;;;4.03;;
72085;SDS011;64750;52.134;5.424;2024-02-26T04:58:28;4.93;;;4.47;;
72085;SDS011;64750;52.134;5.424;2024-02-26T05:00:55;4.97;;;4.57;;
72085;SDS011;64750;52.134;5.424;2024-02-26T05:03:22;5.18;;;4.78;;
72085;SDS011;64750;52.134;5.424;2024-02-26T05:05:48;4.88;;;4.47;;
72085;SDS011;64750;52.134;5.424;2024-02-26T05:08:15;5.38;;;4.97;;
72085;SDS011;64750;52.134;5.424;2024-02-26T05:10:41;5.53;;;5.03;;
72085;SDS011;64750;52.134;5.424;2024-02-26T05:13:09;5.30;;;4.80;;
72085;SDS011;64750;52.134;5.424;2024-02-26T05:15:36;5.72;;;5.13;;
72085;SDS011;64750;52.134;5.424;2024-02-26T05:18:02;5.38;;;4.97;;
72085;SDS011;64750;52.134;5.424;2024-02-26T05:20:29;5.88;;;5.18;;
72085;SDS011;64750;52.134;5.424;2024-02-26T05:22:57;5.10;;;4.70;;
72085;SDS011;64750;52.134;5.424;2024-02-26T05:25:25;7.07;;;5.82;;
72085;SDS011;64750;52.134;5.424;2024-02-26T05:27:51;5.95;;;5.05;;
72085;SDS011;64750;52.134;5.424;2024-02-26T05:30:18;6.53;;;5.93;;
72085;SDS011;64750;52.134;5.424;2024-02-26T05:32:45;8.05;;;5.25;;
72085;SDS011;64750;52.134;5.424;2024-02-26T05:35:11;5.30;;;4.90;;
72085;SDS011;64750;52.134;5.424;2024-02-26T05:37:38;5.93;;;5.18;;
72085;SDS011;64750;52.134;5.424;2024-02-26T05:40:05;6.07;;;5.47;;
72085;SDS011;64750;52.134;5.424;2024-02-26T05:42:32;5.57;;;5.07;;
72085;SDS011;64750;52.134;5.424;2024-02-26T05:44:59;6.22;;;5.70;;
72085;SDS011;64750;52.134;5.424;2024-02-26T05:47:34;5.97;;;5.40;;
72085;SDS011;64750;52.134;5.424;2024-02-26T05:50:03;5.65;;;5.15;;
72085;SDS011;64750;52.134;5.424;2024-02-26T05:52:30;6.50;;;5.88;;
72085;SDS011;64750;52.134;5.424;2024-02-26T05:54:57;5.72;;;5.22;;
72085;SDS011;64750;52.134;5.424;2024-02-26T05:57:24;6.93;;;6.22;;
72085;SDS011;64750;52.134;5.424;2024-02-26T05:59:50;6.27;;;5.67;;
72085;SDS011;64750;52.134;5.424;2024-02-26T06:02:17;7.22;;;6.55;;
72085;SDS011;64750;52.134;5.424;2024-02-26T06:04:43;7.20;;;6.30;;
72085;SDS011;64750;52.134;5.424;2024-02-26T06:07:10;6.25;;;5.53;;
72085;SDS011;64750;52.134;5.424;2024-02-26T06:09:36;7.35;;;5.95;;
72085;SDS011;64750;52.134;5.424;2024-02-26T06:12:03;6.70;;;6.07;;
72085;SDS011;64750;52.134;5.424;2024-02-26T06:14:30;6.78;;;6.07;;
72085;SDS011;64750;52.134;5.424;2024-02-26T06:16:56;9.75;;;5.40;;
72085;SDS011;64750;52.134;5.424;2024-02-26T06:19:23;6.20;;;5.70;;
72085;SDS011;64750;52.134;5.424;2024-02-26T06:21:50;8.93;;;5.80;;
72085;SDS011;64750;52.134;5.424;2024-02-26T06:24:17;6.97;;;6.37;;
72085;SDS011;64750;52.134;5.424;2024-02-26T06:26:43;7.45;;;6.13;;
72085;SDS011;64750;52.134;5.424;2024-02-26T06:29:10;6.72;;;5.85;;
72085;SDS011;64750;52.134;5.424;2024-02-26T06:31:39;7.38;;;6.53;;
72085;SDS011;64750;52.134;5.424;2024-02-26T06:34:05;7.25;;;6.18;;
72085;SDS011;64750;52.134;5.424;2024-02-26T06:36:32;9.33;;;7.10;;
72085;SDS011;64750;52.134;5.424;2024-02-26T06:38:59;10.48;;;6.20;;
72085;SDS011;64750;52.134;5.424;2024-02-26T06:41:26;8.27;;;6.65;;
72085;SDS011;64750;52.134;5.424;2024-02-26T06:43:54;10.32;;;7.32;;
72085;SDS011;64750;52.134;5.424;2024-02-26T06:46:20;7.65;;;6.53;;
72085;SDS011;64750;52.134;5.424;2024-02-26T06:48:47;8.20;;;6.67;;
72085;SDS011;64750;52.134;5.424;2024-02-26T06:51:19;11.27;;;7.82;;
72085;SDS011;64750;52.134;5.424;2024-02-26T06:53:45;9.63;;;6.65;;
72085;SDS011;64750;52.134;5.424;2024-02-26T06:56:12;11.27;;;6.68;;
72085;SDS011;64750;52.134;5.424;2024-02-26T06:58:38;9.05;;;7.72;;
72085;SDS011;64750;52.134;5.424;2024-02-26T07:01:05;10.73;;;7.40;;
72085;SDS011;64750;52.134;5.424;2024-02-26T07:03:31;9.25;;;7.47;;
72085;SDS011;64750;52.134;5.424;2024-02-26T07:05:59;10.40;;;8.23;;
72085;SDS011;64750;52.134;5.424;2024-02-26T07:08:26;10.13;;;8.23;;
72085;SDS011;64750;52.134;5.424;2024-02-26T07:10:52;10.20;;;7.95;;
72085;SDS011;64750;52.134;5.424;2024-02-26T07:13:19;10.03;;;7.57;;
72085;SDS011;64750;52.134;5.424;2024-02-26T07:15:45;12.05;;;8.63;;
72085;SDS011;64750;52.134;5.424;2024-02-26T07:18:12;12.73;;;8.80;;
72085;SDS011;64750;52.134;5.424;2024-02-26T07:20:39;11.98;;;8.77;;
72085;SDS011;64750;52.134;5.424;2024-02-26T07:23:05;11.63;;;9.18;;
72085;SDS011;64750;52.134;5.424;2024-02-26T07:25:32;12.67;;;9.17;;
72085;SDS011;64750;52.134;5.424;2024-02-26T07:27:59;13.68;;;9.00;;
72085;SDS011;64750;52.134;5.424;2024-02-26T07:30:25;13.02;;;9.05;;
72085;SDS011;64750;52.134;5.424;2024-02-26T07:32:52;10.82;;;8.60;;
72085;SDS011;64750;52.134;5.424;2024-02-26T07:35:19;15.85;;;10.10;;
72085;SDS011;64750;52.134;5.424;2024-02-26T07:37:47;15.67;;;9.03;;
72085;SDS011;64750;52.134;5.424;2024-02-26T07:40:16;14.30;;;10.38;;
72085;SDS011;64750;52.134;5.424;2024-02-26T07:42:42;17.33;;;10.00;;
72085;SDS011;64750;52.134;5.424;2024-02-26T07:45:09;13.10;;;10.95;;
72085;SDS011;64750;52.134;5.424;2024-02-26T07:47:36;16.65;;;10.60;;
72085;SDS011;64750;52.134;5.424;2024-02-26T07:50:04;17.93;;;10.73;;
72085;SDS011;64750;52.134;5.424;2024-02-26T07:52:31;15.05;;;10.63;;
72085;SDS011;64750;52.134;5.424;2024-02-26T07:54:57;14.77;;;9.70;;
72085;SDS011;64750;52.134;5.424;2024-02-26T07:57:24;17.75;;;10.95;;
72085;SDS011;64750;52.134;5.424;2024-02-26T07:59:50;15.65;;;10.25;;
72085;SDS011;64750;52.134;5.424;2024-02-26T08:02:17;13.83;;;10.13;;
72085;SDS011;64750;52.134;5.424;2024-02-26T08:04:43;14.00;;;10.13;;
72085;SDS011;64750;52.134;5.424;2024-02-26T08:07:10;17.25;;;10.25;;
72085;SDS011;64750;52.134;5.424;2024-02-26T08:09:36;16.10;;;10.43;;
72085;SDS011;64750;52.134;5.424;2024-02-26T08:12:03;17.17;;;9.65;;
72085;SDS011;64750;52.134;5.424;2024-02-26T08:14:30;14.37;;;10.80;;
72085;SDS011;64750;52.134;5.424;2024-02-26T08:16:59;13.05;;;10.00;;
72085;SDS011;64750;52.134;5.424;2024-02-26T08:19:26;14.98;;;9.90;;
72085;SDS011;64750;52.134;5.424;2024-02-26T08:21:53;15.35;;;10.57;;
72085;SDS011;64750;52.134;5.424;2024-02-26T08:24:20;16.27;;;10.10;;
72085;SDS011;64750;52.134;5.424;2024-02-26T08:26:46;12.13;;;9.63;;
72085;SDS011;64750;52.134;5.424;2024-02-26T08:29:13;10.35;;;8.45;;
72085;SDS011;64750;52.134;5.424;2024-02-26T08:31:39;11.85;;;9.20;;
72085;SDS011;64750;52.134;5.424;2024-02-26T08:34:06;10.07;;;8.23;;
72085;SDS011;64750;52.134;5.424;2024-02-26T08:36:33;10.57;;;8.15;;
72085;SDS011;64750;52.134;5.424;2024-02-26T08:39:00;10.07;;;7.90;;
72085;SDS011;64750;52.134;5.424;2024-02-26T08:41:27;12.02;;;8.23;;
72085;SDS011;64750;52.134;5.424;2024-02-26T08:43:53;8.35;;;7.40;;
72085;SDS011;64750;52.134;5.424;2024-02-26T08:46:20;10.00;;;7.70;;
72085;SDS011;64750;52.134;5.424;2024-02-26T08:48:47;7.85;;;6.60;;
72085;SDS011;64750;52.134;5.424;2024-02-26T08:51:14;8.77;;;6.47;;
72085;SDS011;64750;52.134;5.424;2024-02-26T08:53:40;6.97;;;6.13;;
72085;SDS011;64750;52.134;5.424;2024-02-26T08:56:09;11.77;;;9.45;;
72085;SDS011;64750;52.134;5.424;2024-02-26T08:58:43;13.25;;;9.10;;
72085;SDS011;64750;52.134;5.424;2024-02-26T09:01:10;9.32;;;7.80;;
72085;SDS011;64750;52.134;5.424;2024-02-26T09:03:36;21.07;;;12.90;;
72085;SDS011;64750;52.134;5.424;2024-02-26T09:06:03;10.10;;;7.90;;
72085;SDS011;64750;52.134;5.424;2024-02-26T09:08:30;7.00;;;6.28;;
72085;SDS011;64750;52.134;5.424;2024-02-26T09:10:56;9.43;;;6.97;;
72085;SDS011;64750;52.134;5.424;2024-02-26T09:13:23;8.98;;;6.25;;
72085;SDS011;64750;52.134;5.424;2024-02-26T09:15:49;8.77;;;6.30;;
72085;SDS011;64750;52.134;5.424;2024-02-26T09:18:15;8.52;;;7.68;;
72085;SDS011;64750;52.134;5.424;2024-02-26T09:20:42;7.03;;;6.13;;
72085;SDS011;64750;52.134;5.424;2024-02-26T09:23:09;6.70;;;6.00;;
72085;SDS011;64750;52.134;5.424;2024-02-26T09:25:35;5.60;;;5.07;;
72085;SDS011;64750;52.134;5.424;2024-02-26T09:28:02;8.17;;;5.23;;
72085;SDS011;64750;52.134;5.424;2024-02-26T09:30:29;7.07;;;6.38;;
72085;SDS011;64750;52.134;5.424;2024-02-26T09:32:56;5.80;;;4.85;;
72085;SDS011;64750;52.134;5.424;2024-02-26T09:35:23;5.40;;;4.95;;
72085;SDS011;64750;52.134;5.424;2024-02-26T09:37:50;5.28;;;4.82;;
72085;SDS011;64750;52.134;5.424;2024-02-26T09:40:16;5.67;;;5.17;;
72085;SDS011;64750;52.134;5.424;2024-02-26T09:42:43;5.60;;;5.00;;
72085;SDS011;64750;52.134;5.424;2024-02-26T09:45:17;5.90;;;5.30;;
72085;SDS011;64750;52.134;5.424;2024-02-26T09:47:45;5.03;;;4.45;;
72085;SDS011;64750;52.134;5.424;2024-02-26T09:50:16;5.22;;;4.72;;
72085;SDS011;64750;52.134;5.424;2024-02-26T09:52:44;4.87;;;4.37;;
72085;SDS011;64750;52.134;5.424;2024-02-26T09:55:11;5.20;;;4.70;;
72085;SDS011;64750;52.134;5.424;2024-02-26T09:57:37;5.00;;;4.60;;
72085;SDS011;64750;52.134;5.424;2024-02-26T10:00:04;6.07;;;4.45;;
72085;SDS011;64750;52.134;5.424;2024-02-26T10:02:36;5.10;;;4.60;;
72085;SDS011;64750;52.134;5.424;2024-02-26T10:05:05;4.97;;;4.57;;
72085;SDS011;64750;52.134;5.424;2024-02-26T10:07:36;5.00;;;4.15;;
72085;SDS011;64750;52.134;5.424;2024-02-26T10:10:03;4.60;;;4.18;;
72085;SDS011;64750;52.134;5.424;2024-02-26T10:12:30;5.53;;;4.75;;
72085;SDS011;64750;52.134;5.424;2024-02-26T10:14:57;5.97;;;4.45;;
72085;SDS011;64750;52.134;5.424;2024-02-26T10:17:24;4.53;;;4.13;;
72085;SDS011;64750;52.134;5.424;2024-02-26T10:19:51;5.63;;;4.90;;
72085;SDS011;64750;52.134;5.424;2024-02-26T10:22:22;4.93;;;4.53;;
72085;SDS011;64750;52.134;5.424;2024-02-26T10:24:49;4.85;;;4.35;;
72085;SDS011;64750;52.134;5.424;2024-02-26T10:27:15;4.72;;;4.30;;
72085;SDS011;64750;52.134;5.424;2024-02-26T10:29:42;4.70;;;4.20;;
72085;SDS011;64750;52.134;5.424;2024-02-26T10:32:09;4.28;;;3.88;;
72085;SDS011;64750;52.134;5.424;2024-02-26T10:34:37;6.07;;;4.55;;
72085;SDS011;64750;52.134;5.424;2024-02-26T10:37:07;4.30;;;3.88;;
72085;SDS011;64750;52.134;5.424;2024-02-26T10:39:36;4.60;;;4.20;;
72085;SDS011;64750;52.134;5.424;2024-02-26T10:42:04;4.13;;;3.73;;
72085;SDS011;64750;52.134;5.424;2024-02-26T10:44:36;5.10;;;4.03;;
72085;SDS011;64750;52.134;5.424;2024-02-26T10:47:02;4.57;;;4.07;;
72085;SDS011;64750;52.134;5.424;2024-02-26T10:49:29;4.85;;;4.45;;
72085;SDS011;64750;52.134;5.424;2024-02-26T10:51:56;4.57;;;4.18;;
72085;SDS011;64750;52.134;5.424;2024-02-26T10:54:26;4.20;;;3.73;;
72085;SDS011;64750;52.134;5.424;2024-02-26T10:56:56;3.95;;;3.65;;
72085;SDS011;64750;52.134;5.424;2024-02-26T10:59:27;6.15;;;4.10;;
72085;SDS011;64750;52.134;5.424;2024-02-26T11:01:53;4.30;;;3.92;;
72085;SDS011;64750;52.134;5.424;2024-02-26T11:04:22;4.95;;;4.03;;
72085;SDS011;64750;52.134;5.424;2024-02-26T11:06:49;4.73;;;4.33;;
72085;SDS011;64750;52.134;5.424;2024-02-26T11:09:16;5.43;;;4.55;;
72085;SDS011;64750;52.134;5.424;2024-02-26T11:11:45;4.63;;;4.18;;
72085;SDS011;64750;52.134;5.424;2024-02-26T11:14:13;4.90;;;4.18;;
72085;SDS011;64750;52.134;5.424;2024-02-26T11:16:40;4.28;;;3.90;;
72085;SDS011;64750;52.134;5.424;2024-02-26T11:19:09;4.27;;;3.87;;
72085;SDS011;64750;52.134;5.424;2024-02-26T11:21:38;5.10;;;4.60;;
72085;SDS011;64750;52.134;5.424;2024-02-26T11:24:08;4.50;;;4.10;;
72085;SDS011;64750;52.134;5.424;2024-02-26T11:26:39;4.80;;;4.40;;
72085;SDS011;64750;52.134;5.424;2024-02-26T11:29:13;7.32;;;4.60;;
72085;SDS011;64750;52.134;5.424;2024-02-26T11:31:42;4.93;;;4.47;;
72085;SDS011;64750;52.134;5.424;2024-02-26T11:34:09;4.55;;;4.15;;
72085;SDS011;64750;52.134;5.424;2024-02-26T11:36:36;4.43;;;4.03;;
72085;SDS011;64750;52.134;5.424;2024-02-26T11:39:03;4.50;;;4.10;;
72085;SDS011;64750;52.134;5.424;2024-02-26T11:41:31;5.20;;;4.07;;
72085;SDS011;64750;52.134;5.424;2024-02-26T11:43:58;4.87;;;4.20;;
72085;SDS011;64750;52.134;5.424;2024-02-26T11:46:33;4.97;;;4.57;;
72085;SDS011;64750;52.134;5.424;2024-02-26T11:51:50;4.72;;;4.25;;
72085;SDS011;64750;52.134;5.424;2024-02-26T11:55:04;8.50;;;4.55;;
72085;SDS011;64750;52.134;5.424;2024-02-26T12:02:43;4.75;;;4.35;;
72085;SDS011;64750;52.134;5.424;2024-02-26T12:05:17;5.10;;;4.47;;
72085;SDS011;64750;52.134;5.424;2024-02-26T12:07:52;4.60;;;4.10;;
72085;SDS011;64750;52.134;5.424;2024-02-26T12:10:21;4.73;;;4.33;;
72085;SDS011;64750;52.134;5.424;2024-02-26T12:15:24;4.93;;;4.43;;
72085;SDS011;64750;52.134;5.424;2024-02-26T12:17:52;6.80;;;4.40;;
72085;SDS011;64750;52.134;5.424;2024-02-26T12:20:19;4.32;;;3.92;;
72085;SDS011;64750;52.134;5.424;2024-02-26T12:22:46;7.30;;;4.27;;
72085;SDS011;64750;52.134;5.424;2024-02-26T12:25:14;5.63;;;5.10;;
72085;SDS011;64750;52.134;5.424;2024-02-26T12:27:41;5.35;;;4.53;;
72085;SDS011;64750;52.134;5.424;2024-02-26T12:30:08;15.70;;;9.65;;
72085;SDS011;64750;52.134;5.424;2024-02-26T12:32:35;14.32;;;8.80;;
72085;SDS011;64750;52.134;5.424;2024-02-26T12:35:01;4.63;;;4.23;;
72085;SDS011;64750;52.134;5.424;2024-02-26T12:37:28;4.93;;;4.45;;
72085;SDS011;64750;52.134;5.424;2024-02-26T12:39:55;5.00;;;4.65;;
72085;SDS011;64750;52.134;5.424;2024-02-26T12:42:21;4.63;;;4.22;;
72085;SDS011;64750;52.134;5.424;2024-02-26T12:44:49;5.60;;;4.53;;
72085;SDS011;64750;52.134;5.424;2024-02-26T12:47:16;5.00;;;4.60;;
72085;SDS011;64750;52.134;5.424;2024-02-26T12:49:43;5.00;;;4.60;;
72085;SDS011;64750;52.134;5.424;2024-02-26T12:52:13;4.25;;;3.85;;
72085;SDS011;64750;52.134;5.424;2024-02-26T12:54:39;6.25;;;4.05;;
72085;SDS011;64750;52.134;5.424;2024-02-26T12:57:08;4.82;;;4.40;;
72085;SDS011;64750;52.134;5.424;2024-02-26T12:59:35;5.27;;;4.77;;
72085;SDS011;64750;52.134;5.424;2024-02-26T13:02:03;4.72;;;4.18;;
72085;SDS011;64750;52.134;5.424;2024-02-26T13:04:33;5.32;;;4.43;;
72085;SDS011;64750;52.134;5.424;2024-02-26T13:07:02;5.00;;;4.38;;
72085;SDS011;64750;52.134;5.424;2024-02-26T13:09:34;4.50;;;4.10;;
72085;SDS011;64750;52.134;5.424;2024-02-26T13:12:05;4.83;;;4.43;;
72085;SDS011;64750;52.134;5.424;2024-02-26T13:14:33;4.72;;;4.03;;
72085;SDS011;64750;52.134;5.424;2024-02-26T13:17:00;5.20;;;4.70;;
72085;SDS011;64750;52.134;5.424;2024-02-26T13:19:27;6.13;;;5.03;;
72085;SDS011;64750;52.134;5.424;2024-02-26T13:21:54;5.00;;;4.60;;
72085;SDS011;64750;52.134;5.424;2024-02-26T13:24:21;6.37;;;5.13;;
72085;SDS011;64750;52.134;5.424;2024-02-26T13:26:55;4.32;;;3.92;;
72085;SDS011;64750;52.134;5.424;2024-02-26T13:29:22;5.03;;;3.88;;
72085;SDS011;64750;52.134;5.424;2024-02-26T13:31:53;4.50;;;4.10;;
72085;SDS011;64750;52.134;5.424;2024-02-26T13:34:26;4.80;;;4.25;;
72085;SDS011;64750;52.134;5.424;2024-02-26T13:36:54;5.03;;;4.00;;
72085;SDS011;64750;52.134;5.424;2024-02-26T13:39:24;6.45;;;4.50;;
72085;SDS011;64750;52.134;5.424;2024-02-26T13:41:52;4.72;;;4.32;;
72085;SDS011;64750;52.134;5.424;2024-02-26T13:44:19;4.25;;;3.90;;
72085;SDS011;64750;52.134;5.424;2024-02-26T13:46:47;4.45;;;4.05;;
72085;SDS011;64750;52.134;5.424;2024-02-26T13:49:15;5.23;;;4.27;;
72085;SDS011;64750;52.134;5.424;2024-02-26T13:51:42;5.30;;;4.80;;
72085;SDS011;64750;52.134;5.424;2024-02-26T13:54:09;5.00;;;4.50;;
72085;SDS011;64750;52.134;5.424;2024-02-26T13:56:36;4.13;;;3.83;;
72085;SDS011;64750;52.134;5.424;2024-02-26T13:59:04;4.43;;;3.92;;
72085;SDS011;64750;52.134;5.424;2024-02-26T14:01:30;4.17;;;3.87;;
72085;SDS011;64750;52.134;5.424;2024-02-26T14:03:59;4.18;;;3.78;;
72085;SDS011;64750;52.134;5.424;2024-02-26T14:06:28;4.13;;;3.83;;
72085;SDS011;64750;52.134;5.424;2024-02-26T14:08:55;3.97;;;3.53;;
72085;SDS011;64750;52.134;5.424;2024-02-26T14:11:21;4.10;;;3.80;;
72085;SDS011;64750;52.134;5.424;2024-02-26T14:13:48;4.20;;;3.70;;
72085;SDS011;64750;52.134;5.424;2024-02-26T14:16:14;4.90;;;3.67;;
72085;SDS011;64750;52.134;5.424;2024-02-26T14:18:41;3.95;;;3.65;;
72085;SDS011;64750;52.134;5.424;2024-02-26T14:21:10;3.72;;;3.35;;
72085;SDS011;64750;52.134;5.424;2024-02-26T14:23:37;4.28;;;3.63;;
72085;SDS011;64750;52.134;5.424;2024-02-26T14:26:05;4.00;;;3.60;;
72085;SDS011;64750;52.134;5.424;2024-02-26T14:28:32;3.83;;;3.40;;
72085;SDS011;64750;52.134;5.424;2024-02-26T14:31:02;3.72;;;3.42;;
72085;SDS011;64750;52.134;5.424;2024-02-26T14:33:30;3.42;;;3.13;;
72085;SDS011;64750;52.134;5.424;2024-02-26T14:35:57;3.47;;;3.17;;
72085;SDS011;64750;52.134;5.424;2024-02-26T14:38:24;4.20;;;3.40;;
72085;SDS011;64750;52.134;5.424;2024-02-26T14:40:50;4.15;;;3.03;;
72085;SDS011;64750;52.134;5.424;2024-02-26T14:43:17;2.88;;;2.67;;
72085;SDS011;64750;52.134;5.424;2024-02-26T14:45:43;3.85;;;3.22;;
72085;SDS011;64750;52.134;5.424;2024-02-26T14:48:10;4.32;;;3.10;;
72085;SDS011;64750;52.134;5.424;2024-02-26T14:50:38;3.20;;;3.00;;
72085;SDS011;64750;52.134;5.424;2024-02-26T14:53:04;3.92;;;2.90;;
72085;SDS011;64750;52.134;5.424;2024-02-26T14:55:33;3.20;;;2.90;;
72085;SDS011;64750;52.134;5.424;2024-02-26T14:58:00;3.67;;;3.10;;